createdAt,value
2022-08-22T00:00:35.620Z,1006.36
2022-08-22T00:02:53.826Z,1006.09
2022-08-22T00:05:39.788Z,1006.35
2022-08-22T00:10:43.947Z,1006.32
2022-08-22T00:15:48.107Z,1006.36
2022-08-22T00:20:52.264Z,1006.37
2022-08-22T00:25:56.472Z,1006.52
2022-08-22T00:31:00.591Z,1006.51
2022-08-22T00:36:04.778Z,1006.52
2022-08-22T00:41:08.888Z,1006.51
2022-08-22T00:46:13.052Z,1006.60
2022-08-22T00:51:17.211Z,1006.49
2022-08-22T00:56:21.365Z,1006.56
2022-08-22T01:01:25.553Z,1006.63
2022-08-22T01:06:29.696Z,1006.59
2022-08-22T01:11:33.857Z,1006.55
2022-08-22T01:16:38.046Z,1006.51
2022-08-22T01:21:42.208Z,1006.52
2022-08-22T01:26:46.376Z,1006.49
2022-08-22T01:31:50.535Z,1006.48
2022-08-22T01:36:54.684Z,1006.47
2022-08-22T01:41:58.851Z,1006.45
2022-08-22T01:47:02.981Z,1006.54
2022-08-22T01:52:07.156Z,1006.54
2022-08-22T01:57:11.323Z,1006.54
2022-08-22T02:02:15.482Z,1006.54
2022-08-22T02:07:19.630Z,1006.59
2022-08-22T02:12:23.819Z,1006.51
2022-08-22T02:17:26.065Z,1006.52
2022-08-22T02:22:30.193Z,1006.49
2022-08-22T02:27:34.364Z,1006.50
2022-08-22T02:32:38.570Z,1006.50
2022-08-22T02:37:42.698Z,1006.39
2022-08-22T02:42:46.834Z,1006.44
2022-08-22T02:47:51.017Z,1006.50
2022-08-22T02:52:55.157Z,1006.38
2022-08-22T02:57:59.514Z,1006.32
2022-08-22T03:03:03.512Z,1006.37
2022-08-22T03:08:07.644Z,1006.29
2022-08-22T03:13:11.816Z,1006.32
2022-08-22T03:18:15.964Z,1006.27
2022-08-22T03:23:20.146Z,1006.26
2022-08-22T03:28:24.280Z,1006.22
2022-08-22T03:33:28.460Z,1006.10
2022-08-22T03:38:32.595Z,1006.26
2022-08-22T03:43:36.793Z,1006.21
2022-08-22T03:48:40.960Z,1006.20
2022-08-22T03:53:45.085Z,1006.15
2022-08-22T03:58:49.259Z,1006.15
2022-08-22T04:03:53.438Z,1006.15
2022-08-22T04:08:57.561Z,1006.19
2022-08-22T04:14:01.721Z,1006.25
2022-08-22T04:19:05.876Z,1006.22
2022-08-22T04:24:10.059Z,1006.29
2022-08-22T04:29:14.196Z,1006.28
2022-08-22T04:34:18.369Z,1006.24
2022-08-22T04:39:22.521Z,1006.28
2022-08-22T04:44:26.701Z,1006.22
2022-08-22T04:49:30.851Z,1006.25
2022-08-22T04:54:35.007Z,1006.31
2022-08-22T04:59:39.193Z,1006.35
2022-08-22T05:04:43.312Z,1006.34
2022-08-22T05:09:47.471Z,1006.32
2022-08-22T05:14:51.639Z,1006.39
2022-08-22T05:19:55.843Z,1006.40
2022-08-22T05:25:00.021Z,1006.42
2022-08-22T05:30:04.157Z,1006.51
2022-08-22T05:35:08.318Z,1006.45
2022-08-22T05:40:12.526Z,1006.47
2022-08-22T05:45:16.611Z,1006.49
2022-08-22T05:50:20.767Z,1006.50
2022-08-22T05:55:24.965Z,1006.57
2022-08-22T06:00:29.153Z,1006.47
2022-08-22T06:05:33.259Z,1006.44
2022-08-22T06:10:37.424Z,1006.49
2022-08-22T06:15:41.615Z,1006.43
2022-08-22T06:20:45.760Z,1006.48
2022-08-22T06:25:49.924Z,1006.42
2022-08-22T06:30:54.053Z,1006.49
2022-08-22T06:35:58.227Z,1006.46
2022-08-22T06:41:02.378Z,1006.54
2022-08-22T06:46:06.566Z,1006.47
2022-08-22T06:51:10.694Z,1006.47
2022-08-22T06:56:14.859Z,1006.47
2022-08-22T07:01:19.065Z,1006.56
2022-08-22T07:06:23.157Z,1006.53
2022-08-22T07:11:27.320Z,1006.43
2022-08-22T07:16:31.485Z,1006.43
2022-08-22T07:21:36.279Z,1006.37
2022-08-22T07:26:39.784Z,1006.38
2022-08-22T07:31:43.965Z,1006.44
2022-08-22T07:36:48.153Z,1006.43
2022-08-22T07:41:52.269Z,1006.41
2022-08-22T07:46:54.536Z,1006.39
2022-08-22T07:51:56.841Z,1006.40
2022-08-22T07:57:00.968Z,1006.40
2022-08-22T08:02:05.122Z,1006.40
2022-08-22T08:07:09.314Z,1006.39
2022-08-22T08:12:13.479Z,1006.38
2022-08-22T08:17:17.666Z,1006.38
2022-08-22T08:22:21.760Z,1006.40
2022-08-22T08:27:25.961Z,1006.28
2022-08-22T08:32:30.077Z,1006.28
2022-08-22T08:37:34.289Z,1006.16
2022-08-22T08:42:38.416Z,1006.18
2022-08-22T08:47:42.542Z,1006.10
2022-08-22T08:52:49.985Z,1006.10
2022-08-22T08:57:50.907Z,1005.95
2022-08-22T09:02:55.023Z,1005.89
2022-08-22T09:07:59.423Z,1005.85
2022-08-22T09:13:12.581Z,1005.74
2022-08-22T09:18:07.543Z,1005.71
2022-08-22T09:23:11.654Z,1005.68
2022-08-22T09:28:15.821Z,1005.68
2022-08-22T09:33:20.021Z,1005.59
2022-08-22T09:38:24.154Z,1005.55
2022-08-22T09:43:28.389Z,1005.58
2022-08-22T09:48:32.463Z,1005.42
2022-08-22T09:53:36.615Z,1005.44
2022-08-22T09:58:40.854Z,1005.45
2022-08-22T10:03:45.237Z,1005.43
2022-08-22T10:08:49.093Z,1005.34
2022-08-22T10:13:57.389Z,1005.34
2022-08-22T10:19:00.248Z,1005.31
2022-08-22T10:24:01.570Z,1005.23
2022-08-22T10:29:05.722Z,1005.28
2022-08-22T10:34:09.886Z,1005.26
2022-08-22T10:39:14.065Z,1005.22
2022-08-22T10:44:18.221Z,1005.21
2022-08-22T10:49:22.471Z,1005.13
2022-08-22T10:54:26.535Z,1005.11
2022-08-22T10:59:30.697Z,1005.21
2022-08-22T11:04:34.862Z,1005.13
2022-08-22T11:09:39.003Z,1005.16
2022-08-22T11:14:43.181Z,1005.06
2022-08-22T11:19:47.305Z,1004.99
2022-08-22T11:24:55.743Z,1004.97
2022-08-22T11:29:55.653Z,1004.92
2022-08-22T11:35:00.365Z,1004.82
2022-08-22T11:40:04.058Z,1004.74
2022-08-22T11:45:08.301Z,1004.61
2022-08-22T11:50:13.941Z,1004.66
2022-08-22T11:55:16.440Z,1004.58
2022-08-22T12:00:20.990Z,1004.57
2022-08-22T12:05:26.428Z,1004.58
2022-08-22T12:10:28.902Z,1004.63
2022-08-22T12:15:33.342Z,1004.60
2022-08-22T12:20:37.256Z,1004.53
2022-08-22T12:25:44.511Z,1004.50
2022-08-22T12:30:45.580Z,1004.44
2022-08-22T12:35:49.679Z,1004.29
2022-08-22T12:40:53.870Z,1004.33
2022-08-22T12:45:58.036Z,1004.26
2022-08-22T12:51:02.163Z,1004.24
2022-08-22T12:56:06.322Z,1004.22
2022-08-22T13:01:10.606Z,1004.22
2022-08-22T13:06:15.258Z,1004.16
2022-08-22T13:11:23.208Z,1004.16
2022-08-22T13:16:22.987Z,1004.12
2022-08-22T13:21:25.247Z,1004.18
2022-08-22T13:26:33.163Z,1004.15
2022-08-22T13:31:33.585Z,1004.20
2022-08-22T13:36:37.739Z,1004.13
2022-08-22T13:41:44.191Z,1003.97
2022-08-22T13:47:04.204Z,1004.06
2022-08-22T13:51:48.299Z,1004.03
2022-08-22T13:56:52.486Z,1004.06
2022-08-22T14:01:56.700Z,1004.06
2022-08-22T14:07:00.803Z,1004.11
2022-08-22T14:12:04.965Z,1004.04
2022-08-22T14:17:09.077Z,1004.05
2022-08-22T14:22:14.490Z,1004.02
2022-08-22T14:27:17.511Z,1004.02
2022-08-22T14:32:22.707Z,1004.00
2022-08-22T14:37:25.736Z,1003.99
2022-08-22T14:42:29.927Z,1003.98
2022-08-22T14:48:14.018Z,1003.90
2022-08-22T14:52:38.198Z,1003.84
2022-08-22T14:57:42.369Z,1003.88
2022-08-22T15:02:46.513Z,1003.84
2022-08-22T15:07:50.692Z,1003.79
2022-08-22T15:12:54.860Z,1003.80
2022-08-22T15:17:58.994Z,1003.73
2022-08-22T15:23:03.546Z,1003.71
2022-08-22T15:28:07.328Z,1003.63
2022-08-22T15:33:11.472Z,1003.71
2022-08-22T15:38:16.145Z,1003.65
2022-08-22T15:43:19.786Z,1003.58
2022-08-22T15:48:23.972Z,1003.62
2022-08-22T15:53:28.106Z,1003.45
2022-08-22T15:58:32.275Z,1003.47
2022-08-22T16:03:36.431Z,1003.37
2022-08-22T16:08:40.593Z,1003.42
2022-08-22T16:13:44.790Z,1003.37
2022-08-22T16:18:48.918Z,1003.41
2022-08-22T16:23:53.092Z,1003.46
2022-08-22T16:28:58.654Z,1003.46
2022-08-22T16:34:01.395Z,1003.35
2022-08-22T16:39:05.566Z,1003.36
2022-08-22T16:44:09.702Z,1003.42
2022-08-22T16:49:13.883Z,1003.36
2022-08-22T16:54:18.018Z,1003.37
2022-08-22T16:59:23.307Z,1003.42
2022-08-22T17:04:26.360Z,1003.47
2022-08-22T17:09:30.538Z,1003.43
2022-08-22T17:14:34.666Z,1003.39
2022-08-22T17:19:38.829Z,1003.42
2022-08-22T17:24:42.963Z,1003.33
2022-08-22T17:29:47.124Z,1003.32
2022-08-22T17:34:51.319Z,1003.31
2022-08-22T17:39:55.862Z,1003.39
2022-08-22T17:44:59.604Z,1003.29
2022-08-22T17:50:03.778Z,1003.25
2022-08-22T17:55:07.920Z,1003.30
2022-08-22T18:00:12.091Z,1003.37
2022-08-22T18:05:16.275Z,1003.43
2022-08-22T18:10:21.639Z,1003.32
2022-08-22T18:15:24.575Z,1003.37
2022-08-22T18:20:28.734Z,1003.43
2022-08-22T18:25:32.920Z,1003.39
2022-08-22T18:30:37.062Z,1003.30
2022-08-22T18:35:41.192Z,1003.40
2022-08-22T18:40:49.873Z,1003.37
2022-08-22T18:45:49.533Z,1003.42
2022-08-22T18:50:53.672Z,1003.51
2022-08-22T18:55:57.932Z,1003.54
2022-08-22T19:01:02.056Z,1003.53
2022-08-22T19:06:06.142Z,1003.57
2022-08-22T19:11:10.353Z,1003.62
2022-08-22T19:16:12.607Z,1003.64
2022-08-22T19:21:16.775Z,1003.72
2022-08-22T19:26:20.901Z,1003.78
2022-08-22T19:31:25.067Z,1003.72
2022-08-22T19:36:29.200Z,1003.77
2022-08-22T19:41:35.064Z,1003.82
2022-08-22T19:46:37.561Z,1003.79
2022-08-22T19:51:41.715Z,1003.84
2022-08-22T19:56:45.871Z,1003.85
2022-08-22T20:01:50.000Z,1003.84
2022-08-22T20:06:54.148Z,1003.73
2022-08-22T20:11:58.361Z,1003.73
2022-08-22T20:17:02.483Z,1003.74
2022-08-22T20:22:06.672Z,1003.80
2022-08-22T20:27:14.409Z,1003.76
2022-08-22T20:32:14.994Z,1003.75
2022-08-22T20:37:36.075Z,1003.69
2022-08-22T20:42:23.308Z,1003.64
2022-08-22T20:47:32.324Z,1003.73
2022-08-22T20:52:31.635Z,1003.60
2022-08-22T20:57:35.792Z,1003.57
2022-08-22T21:02:39.905Z,1003.55
2022-08-22T21:07:44.088Z,1003.57
2022-08-22T21:12:48.263Z,1003.59
2022-08-22T21:17:52.398Z,1003.58
2022-08-22T21:22:56.566Z,1003.58
2022-08-22T21:28:01.014Z,1003.62
2022-08-22T21:33:04.906Z,1003.60
2022-08-22T21:38:09.018Z,1003.57
2022-08-22T21:43:13.200Z,1003.67
2022-08-22T21:48:17.386Z,1003.60
2022-08-22T21:53:21.542Z,1003.62
2022-08-22T21:58:34.179Z,1003.65
2022-08-22T22:03:29.844Z,1003.69
2022-08-22T22:08:34.013Z,1003.71
2022-08-22T22:13:38.175Z,1003.69
2022-08-22T22:18:42.284Z,1003.76
2022-08-22T22:23:46.478Z,1003.67
2022-08-22T22:28:50.608Z,1003.71
2022-08-22T22:33:54.760Z,1003.65
2022-08-22T22:38:58.945Z,1003.69
2022-08-22T22:44:03.094Z,1003.67
2022-08-22T22:49:07.268Z,1003.67
2022-08-22T22:54:11.411Z,1003.69
2022-08-22T22:59:15.567Z,1003.71
2022-08-22T23:04:19.744Z,1003.69
2022-08-22T23:09:23.893Z,1003.75
2022-08-22T23:14:28.053Z,1003.71
2022-08-22T23:19:32.246Z,1003.74
2022-08-22T23:24:36.371Z,1003.77
2022-08-22T23:29:40.544Z,1003.79
2022-08-22T23:34:44.698Z,1003.87
2022-08-22T23:39:48.928Z,1003.79
2022-08-22T23:44:53.013Z,1003.77
2022-08-22T23:49:57.172Z,1003.90
2022-08-22T23:55:01.321Z,1003.90
